sensor_id;sensor_type;location;lat;lon;timestamp;temperature;humidity
67354;SHT30;54238;52.278;21.056;2023-05-10T00:00:59;10.44;44.96
67354;SHT30;54238;52.278;21.056;2023-05-10T00:03:29;10.40;45.00
67354;SHT30;54238;52.278;21.056;2023-05-10T00:06:00;10.37;45.14
67354;SHT30;54238;52.278;21.056;2023-05-10T00:08:30;10.35;45.13
67354;SHT30;54238;52.278;21.056;2023-05-10T00:10:59;10.34;45.36
67354;SHT30;54238;52.278;21.056;2023-05-10T00:13:28;10.30;45.14
67354;SHT30;54238;52.278;21.056;2023-05-10T00:15:58;10.29;45.34
67354;SHT30;54238;52.278;21.056;2023-05-10T00:18:27;10.26;45.48
67354;SHT30;54238;52.278;21.056;2023-05-10T00:20:57;10.24;45.53
67354;SHT30;54238;52.278;21.056;2023-05-10T00:23:24;10.22;45.29
67354;SHT30;54238;52.278;21.056;2023-05-10T00:25:51;10.21;45.43
67354;SHT30;54238;52.278;21.056;2023-05-10T00:28:21;10.21;45.26
67354;SHT30;54238;52.278;21.056;2023-05-10T00:30:51;10.20;45.11
67354;SHT30;54238;52.278;21.056;2023-05-10T00:33:22;10.19;45.17
67354;SHT30;54238;52.278;21.056;2023-05-10T00:35:54;10.17;45.04
67354;SHT30;54238;52.278;21.056;2023-05-10T00:38:24;10.16;45.12
67354;SHT30;54238;52.278;21.056;2023-05-10T00:40:53;10.14;45.17
67354;SHT30;54238;52.278;21.056;2023-05-10T00:43:20;10.13;45.21
67354;SHT30;54238;52.278;21.056;2023-05-10T00:45:50;10.11;45.22
67354;SHT30;54238;52.278;21.056;2023-05-10T00:48:20;10.10;45.02
67354;SHT30;54238;52.278;21.056;2023-05-10T00:50:53;10.08;45.13
67354;SHT30;54238;52.278;21.056;2023-05-10T00:53:27;10.06;45.06
67354;SHT30;54238;52.278;21.056;2023-05-10T00:56:00;10.07;44.72
67354;SHT30;54238;52.278;21.056;2023-05-10T00:58:29;10.08;44.41
67354;SHT30;54238;52.278;21.056;2023-05-10T01:00:59;10.10;44.30
67354;SHT30;54238;52.278;21.056;2023-05-10T01:03:30;10.11;44.24
67354;SHT30;54238;52.278;21.056;2023-05-10T01:06:01;10.12;44.06
67354;SHT30;54238;52.278;21.056;2023-05-10T01:08:29;10.12;44.05
67354;SHT30;54238;52.278;21.056;2023-05-10T01:10:59;10.13;43.92
67354;SHT30;54238;52.278;21.056;2023-05-10T01:13:36;10.14;43.96
67354;SHT30;54238;52.278;21.056;2023-05-10T01:16:11;10.11;43.87
67354;SHT30;54238;52.278;21.056;2023-05-10T01:18:42;10.11;43.80
67354;SHT30;54238;52.278;21.056;2023-05-10T01:34:17;10.13;43.00
67354;SHT30;54238;52.278;21.056;2023-05-10T01:39:38;10.13;42.85
67354;SHT30;54238;52.278;21.056;2023-05-10T01:42:28;10.14;42.85
67354;SHT30;54238;52.278;21.056;2023-05-10T01:45:14;10.12;42.91
67354;SHT30;54238;52.278;21.056;2023-05-10T01:48:09;10.10;42.89
67354;SHT30;54238;52.278;21.056;2023-05-10T01:50:39;10.10;42.80
67354;SHT30;54238;52.278;21.056;2023-05-10T01:53:16;10.09;42.87
67354;SHT30;54238;52.278;21.056;2023-05-10T01:55:51;10.09;42.64
67354;SHT30;54238;52.278;21.056;2023-05-10T01:58:27;10.12;42.65
67354;SHT30;54238;52.278;21.056;2023-05-10T02:01:00;10.10;42.68
67354;SHT30;54238;52.278;21.056;2023-05-10T02:03:32;10.12;42.55
67354;SHT30;54238;52.278;21.056;2023-05-10T02:06:04;10.12;42.50
67354;SHT30;54238;52.278;21.056;2023-05-10T02:08:36;10.13;42.44
67354;SHT30;54238;52.278;21.056;2023-05-10T02:11:12;10.14;42.50
67354;SHT30;54238;52.278;21.056;2023-05-10T02:13:43;10.13;42.49
67354;SHT30;54238;52.278;21.056;2023-05-10T02:16:17;10.12;42.57
67354;SHT30;54238;52.278;21.056;2023-05-10T02:18:52;10.12;42.62
67354;SHT30;54238;52.278;21.056;2023-05-10T02:21:24;10.10;42.53
67354;SHT30;54238;52.278;21.056;2023-05-10T02:23:54;10.08;42.79
67354;SHT30;54238;52.278;21.056;2023-05-10T02:29:33;10.04;43.13
67354;SHT30;54238;52.278;21.056;2023-05-10T02:32:03;10.01;42.96
67354;SHT30;54238;52.278;21.056;2023-05-10T02:34:31;9.94;43.35
67354;SHT30;54238;52.278;21.056;2023-05-10T02:37:02;9.88;43.49
67354;SHT30;54238;52.278;21.056;2023-05-10T02:39:33;9.83;43.44
67354;SHT30;54238;52.278;21.056;2023-05-10T02:42:11;9.77;43.50
67354;SHT30;54238;52.278;21.056;2023-05-10T02:44:47;9.71;43.58
67354;SHT30;54238;52.278;21.056;2023-05-10T02:47:24;9.65;43.92
67354;SHT30;54238;52.278;21.056;2023-05-10T02:49:59;9.58;44.26
67354;SHT30;54238;52.278;21.056;2023-05-10T02:52:30;9.52;44.23
67354;SHT30;54238;52.278;21.056;2023-05-10T02:55:19;9.48;44.35
67354;SHT30;54238;52.278;21.056;2023-05-10T02:57:58;9.41;44.51
67354;SHT30;54238;52.278;21.056;2023-05-10T03:00:30;9.37;44.59
67354;SHT30;54238;52.278;21.056;2023-05-10T03:03:01;9.35;44.59
67354;SHT30;54238;52.278;21.056;2023-05-10T03:05:31;9.31;44.78
67354;SHT30;54238;52.278;21.056;2023-05-10T03:08:02;9.28;45.10
67354;SHT30;54238;52.278;21.056;2023-05-10T03:10:33;9.24;45.37
67354;SHT30;54238;52.278;21.056;2023-05-10T03:16:12;9.17;45.56
67354;SHT30;54238;52.278;21.056;2023-05-10T03:22:29;9.13;46.02
67354;SHT30;54238;52.278;21.056;2023-05-10T03:25:04;9.11;46.21
67354;SHT30;54238;52.278;21.056;2023-05-10T03:27:38;9.08;46.31
67354;SHT30;54238;52.278;21.056;2023-05-10T03:30:13;9.07;46.47
67354;SHT30;54238;52.278;21.056;2023-05-10T03:32:41;9.04;46.59
67354;SHT30;54238;52.278;21.056;2023-05-10T03:35:12;9.03;46.47
67354;SHT30;54238;52.278;21.056;2023-05-10T03:37:41;9.03;46.64
67354;SHT30;54238;52.278;21.056;2023-05-10T03:40:11;9.03;46.55
67354;SHT30;54238;52.278;21.056;2023-05-10T03:42:41;9.03;46.65
67354;SHT30;54238;52.278;21.056;2023-05-10T03:45:13;9.03;46.61
67354;SHT30;54238;52.278;21.056;2023-05-10T03:47:43;9.05;46.54
67354;SHT30;54238;52.278;21.056;2023-05-10T03:50:18;9.03;47.07
67354;SHT30;54238;52.278;21.056;2023-05-10T03:52:47;9.01;46.98
67354;SHT30;54238;52.278;21.056;2023-05-10T03:55:17;8.99;46.86
67354;SHT30;54238;52.278;21.056;2023-05-10T03:57:45;9.00;47.16
67354;SHT30;54238;52.278;21.056;2023-05-10T04:00:16;8.99;47.63
67354;SHT30;54238;52.278;21.056;2023-05-10T04:02:45;8.98;47.53
67354;SHT30;54238;52.278;21.056;2023-05-10T04:05:13;9.01;47.26
67354;SHT30;54238;52.278;21.056;2023-05-10T04:07:40;9.04;47.03
67354;SHT30;54238;52.278;21.056;2023-05-10T04:10:07;9.08;47.02
67354;SHT30;54238;52.278;21.056;2023-05-10T04:12:38;9.13;47.05
67354;SHT30;54238;52.278;21.056;2023-05-10T04:15:10;9.16;47.28
67354;SHT30;54238;52.278;21.056;2023-05-10T04:17:37;9.18;47.60
67354;SHT30;54238;52.278;21.056;2023-05-10T04:20:07;9.23;47.11
67354;SHT30;54238;52.278;21.056;2023-05-10T04:22:38;9.29;46.86
67354;SHT30;54238;52.278;21.056;2023-05-10T04:25:07;9.34;46.84
67354;SHT30;54238;52.278;21.056;2023-05-10T04:27:38;9.39;46.77
67354;SHT30;54238;52.278;21.056;2023-05-10T04:30:09;9.44;46.68
67354;SHT30;54238;52.278;21.056;2023-05-10T04:32:37;9.51;46.57
67354;SHT30;54238;52.278;21.056;2023-05-10T04:35:07;9.57;46.39
67354;SHT30;54238;52.278;21.056;2023-05-10T04:37:37;9.63;46.29
67354;SHT30;54238;52.278;21.056;2023-05-10T04:40:07;9.70;45.93
67354;SHT30;54238;52.278;21.056;2023-05-10T04:42:41;9.80;45.71
67354;SHT30;54238;52.278;21.056;2023-05-10T04:45:10;9.86;45.71
67354;SHT30;54238;52.278;21.056;2023-05-10T04:47:41;9.94;45.81
67354;SHT30;54238;52.278;21.056;2023-05-10T04:50:11;10.01;45.64
67354;SHT30;54238;52.278;21.056;2023-05-10T04:52:43;10.08;45.27
67354;SHT30;54238;52.278;21.056;2023-05-10T04:55:10;10.15;45.22
67354;SHT30;54238;52.278;21.056;2023-05-10T04:57:40;10.23;45.03
67354;SHT30;54238;52.278;21.056;2023-05-10T05:00:09;10.33;44.90
67354;SHT30;54238;52.278;21.056;2023-05-10T05:02:37;10.41;44.68
67354;SHT30;54238;52.278;21.056;2023-05-10T05:05:09;10.48;44.64
67354;SHT30;54238;52.278;21.056;2023-05-10T05:07:39;10.54;44.53
67354;SHT30;54238;52.278;21.056;2023-05-10T05:10:09;10.63;44.40
67354;SHT30;54238;52.278;21.056;2023-05-10T05:12:39;10.72;44.65
67354;SHT30;54238;52.278;21.056;2023-05-10T05:15:45;10.85;44.45
67354;SHT30;54238;52.278;21.056;2023-05-10T05:18:17;10.95;43.95
67354;SHT30;54238;52.278;21.056;2023-05-10T05:20:53;11.04;43.62
67354;SHT30;54238;52.278;21.056;2023-05-10T05:23:22;11.14;43.66
67354;SHT30;54238;52.278;21.056;2023-05-10T05:25:56;11.23;43.49
67354;SHT30;54238;52.278;21.056;2023-05-10T05:28:26;11.31;43.33
67354;SHT30;54238;52.278;21.056;2023-05-10T05:30:59;11.39;43.37
67354;SHT30;54238;52.278;21.056;2023-05-10T05:33:28;11.49;43.45
67354;SHT30;54238;52.278;21.056;2023-05-10T05:35:59;11.57;43.37
67354;SHT30;54238;52.278;21.056;2023-05-10T05:38:30;11.64;43.02
67354;SHT30;54238;52.278;21.056;2023-05-10T05:41:00;11.70;42.98
67354;SHT30;54238;52.278;21.056;2023-05-10T05:43:27;11.76;43.00
67354;SHT30;54238;52.278;21.056;2023-05-10T05:45:57;11.82;42.85
67354;SHT30;54238;52.278;21.056;2023-05-10T05:48:29;11.89;42.69
67354;SHT30;54238;52.278;21.056;2023-05-10T05:50:59;12.00;42.77
67354;SHT30;54238;52.278;21.056;2023-05-10T05:53:27;12.11;42.41
67354;SHT30;54238;52.278;21.056;2023-05-10T05:55:55;12.19;42.43
67354;SHT30;54238;52.278;21.056;2023-05-10T05:58:26;12.29;42.10
67354;SHT30;54238;52.278;21.056;2023-05-10T06:00:57;12.36;41.99
67354;SHT30;54238;52.278;21.056;2023-05-10T06:03:27;12.44;42.01
67354;SHT30;54238;52.278;21.056;2023-05-10T06:05:54;12.55;41.70
67354;SHT30;54238;52.278;21.056;2023-05-10T06:08:24;12.65;41.37
67354;SHT30;54238;52.278;21.056;2023-05-10T06:10:52;12.75;41.30
67354;SHT30;54238;52.278;21.056;2023-05-10T06:13:24;12.85;41.14
67354;SHT30;54238;52.278;21.056;2023-05-10T06:15:53;12.95;40.69
67354;SHT30;54238;52.278;21.056;2023-05-10T06:18:21;13.04;40.70
67354;SHT30;54238;52.278;21.056;2023-05-10T06:20:49;13.13;40.44
67354;SHT30;54238;52.278;21.056;2023-05-10T06:23:16;13.24;40.04
67354;SHT30;54238;52.278;21.056;2023-05-10T06:25:49;13.33;39.69
67354;SHT30;54238;52.278;21.056;2023-05-10T06:28:16;13.44;39.98
67354;SHT30;54238;52.278;21.056;2023-05-10T06:30:43;13.57;39.32
67354;SHT30;54238;52.278;21.056;2023-05-10T06:33:14;13.67;39.17
67354;SHT30;54238;52.278;21.056;2023-05-10T06:35:43;13.80;39.11
67354;SHT30;54238;52.278;21.056;2023-05-10T06:38:15;13.92;39.12
67354;SHT30;54238;52.278;21.056;2023-05-10T06:40:45;14.05;39.01
67354;SHT30;54238;52.278;21.056;2023-05-10T06:43:12;14.16;38.40
67354;SHT30;54238;52.278;21.056;2023-05-10T06:45:41;14.24;37.35
67354;SHT30;54238;52.278;21.056;2023-05-10T06:48:11;14.31;36.93
67354;SHT30;54238;52.278;21.056;2023-05-10T06:50:40;14.40;36.84
67354;SHT30;54238;52.278;21.056;2023-05-10T06:53:14;14.52;36.70
67354;SHT30;54238;52.278;21.056;2023-05-10T06:55:43;14.63;36.45
67354;SHT30;54238;52.278;21.056;2023-05-10T06:58:17;14.74;36.35
67354;SHT30;54238;52.278;21.056;2023-05-10T07:00:51;14.86;35.44
67354;SHT30;54238;52.278;21.056;2023-05-10T07:03:22;14.96;35.56
67354;SHT30;54238;52.278;21.056;2023-05-10T07:05:54;15.09;35.35
67354;SHT30;54238;52.278;21.056;2023-05-10T07:08:35;15.22;34.96
67354;SHT30;54238;52.278;21.056;2023-05-10T07:11:05;15.32;34.41
67354;SHT30;54238;52.278;21.056;2023-05-10T07:13:35;15.43;34.01
67354;SHT30;54238;52.278;21.056;2023-05-10T07:16:08;15.55;34.03
67354;SHT30;54238;52.278;21.056;2023-05-10T07:18:38;15.67;33.97
67354;SHT30;54238;52.278;21.056;2023-05-10T07:21:05;15.81;33.83
67354;SHT30;54238;52.278;21.056;2023-05-10T07:23:37;15.93;33.15
67354;SHT30;54238;52.278;21.056;2023-05-10T07:26:09;16.03;31.85
67354;SHT30;54238;52.278;21.056;2023-05-10T07:28:37;16.08;30.85
67354;SHT30;54238;52.278;21.056;2023-05-10T07:31:10;16.12;30.51
67354;SHT30;54238;52.278;21.056;2023-05-10T07:33:40;16.20;30.22
67354;SHT30;54238;52.278;21.056;2023-05-10T07:36:17;16.24;31.31
67354;SHT30;54238;52.278;21.056;2023-05-10T07:38:46;16.29;30.04
67354;SHT30;54238;52.278;21.056;2023-05-10T07:41:13;16.31;29.15
67354;SHT30;54238;52.278;21.056;2023-05-10T07:43:41;16.35;29.71
67354;SHT30;54238;52.278;21.056;2023-05-10T07:46:13;16.43;29.44
67354;SHT30;54238;52.278;21.056;2023-05-10T07:48:40;16.44;27.86
67354;SHT30;54238;52.278;21.056;2023-05-10T07:51:12;16.47;28.51
67354;SHT30;54238;52.278;21.056;2023-05-10T07:53:44;16.51;28.17
67354;SHT30;54238;52.278;21.056;2023-05-10T07:59:02;16.57;28.93
67354;SHT30;54238;52.278;21.056;2023-05-10T08:01:34;16.68;29.17
67354;SHT30;54238;52.278;21.056;2023-05-10T08:04:02;16.75;27.93
67354;SHT30;54238;52.278;21.056;2023-05-10T08:06:29;16.81;27.69
67354;SHT30;54238;52.278;21.056;2023-05-10T08:09:01;16.86;27.72
67354;SHT30;54238;52.278;21.056;2023-05-10T08:11:28;16.90;26.80
67354;SHT30;54238;52.278;21.056;2023-05-10T08:14:01;16.93;26.76
67354;SHT30;54238;52.278;21.056;2023-05-10T08:16:31;16.93;26.69
67354;SHT30;54238;52.278;21.056;2023-05-10T08:19:03;16.98;26.95
67354;SHT30;54238;52.278;21.056;2023-05-10T08:21:32;17.03;26.57
67354;SHT30;54238;52.278;21.056;2023-05-10T08:23:59;17.08;26.80
67354;SHT30;54238;52.278;21.056;2023-05-10T08:26:29;17.15;27.11
67354;SHT30;54238;52.278;21.056;2023-05-10T08:29:01;17.24;27.22
67354;SHT30;54238;52.278;21.056;2023-05-10T08:31:36;17.29;26.41
67354;SHT30;54238;52.278;21.056;2023-05-10T08:34:08;17.36;26.56
67354;SHT30;54238;52.278;21.056;2023-05-10T08:36:35;17.44;26.18
67354;SHT30;54238;52.278;21.056;2023-05-10T08:39:04;17.48;26.36
67354;SHT30;54238;52.278;21.056;2023-05-10T08:41:34;17.56;26.12
67354;SHT30;54238;52.278;21.056;2023-05-10T08:44:06;17.63;26.38
67354;SHT30;54238;52.278;21.056;2023-05-10T08:46:34;17.75;26.74
67354;SHT30;54238;52.278;21.056;2023-05-10T08:49:14;17.87;26.35
67354;SHT30;54238;52.278;21.056;2023-05-10T08:51:54;17.94;25.89
67354;SHT30;54238;52.278;21.056;2023-05-10T08:54:26;18.04;25.97
67354;SHT30;54238;52.278;21.056;2023-05-10T08:56:53;18.09;26.00
67354;SHT30;54238;52.278;21.056;2023-05-10T08:59:22;18.20;26.79
67354;SHT30;54238;52.278;21.056;2023-05-10T09:01:52;18.43;27.36
67354;SHT30;54238;52.278;21.056;2023-05-10T09:04:27;18.63;27.40
67354;SHT30;54238;52.278;21.056;2023-05-10T09:06:56;18.83;27.02
67354;SHT30;54238;52.278;21.056;2023-05-10T09:09:28;18.96;25.84
67354;SHT30;54238;52.278;21.056;2023-05-10T09:12:00;19.05;25.37
67354;SHT30;54238;52.278;21.056;2023-05-10T09:14:30;19.08;24.99
67354;SHT30;54238;52.278;21.056;2023-05-10T09:17:04;19.15;25.20
67354;SHT30;54238;52.278;21.056;2023-05-10T09:22:27;19.19;24.03
67354;SHT30;54238;52.278;21.056;2023-05-10T09:25:12;19.22;24.41
67354;SHT30;54238;52.278;21.056;2023-05-10T09:27:46;19.38;24.24
67354;SHT30;54238;52.278;21.056;2023-05-10T09:30:24;19.54;24.35
67354;SHT30;54238;52.278;21.056;2023-05-10T09:32:59;19.78;24.36
67354;SHT30;54238;52.278;21.056;2023-05-10T09:35:28;20.00;24.55
67354;SHT30;54238;52.278;21.056;2023-05-10T09:37:59;20.20;25.36
67354;SHT30;54238;52.278;21.056;2023-05-10T09:40:34;20.38;25.60
67354;SHT30;54238;52.278;21.056;2023-05-10T09:43:05;20.57;24.10
67354;SHT30;54238;52.278;21.056;2023-05-10T09:45:35;20.69;24.44
67354;SHT30;54238;52.278;21.056;2023-05-10T09:48:05;20.95;24.25
67354;SHT30;54238;52.278;21.056;2023-05-10T09:50:39;21.16;23.98
67354;SHT30;54238;52.278;21.056;2023-05-10T09:53:08;21.32;23.77
67354;SHT30;54238;52.278;21.056;2023-05-10T09:55:38;21.43;22.92
67354;SHT30;54238;52.278;21.056;2023-05-10T09:58:15;21.55;22.34
67354;SHT30;54238;52.278;21.056;2023-05-10T10:00:45;21.65;21.92
67354;SHT30;54238;52.278;21.056;2023-05-10T10:03:20;21.72;22.09
67354;SHT30;54238;52.278;21.056;2023-05-10T10:05:53;21.89;22.23
67354;SHT30;54238;52.278;21.056;2023-05-10T10:08:29;22.10;23.06
67354;SHT30;54238;52.278;21.056;2023-05-10T10:10:56;22.29;21.70
67354;SHT30;54238;52.278;21.056;2023-05-10T10:13:26;22.41;22.77
67354;SHT30;54238;52.278;21.056;2023-05-10T10:18:31;22.73;22.00
67354;SHT30;54238;52.278;21.056;2023-05-10T10:24:07;23.09;21.83
67354;SHT30;54238;52.278;21.056;2023-05-10T10:26:36;23.31;21.31
67354;SHT30;54238;52.278;21.056;2023-05-10T10:29:23;23.35;21.22
67354;SHT30;54238;52.278;21.056;2023-05-10T10:32:28;23.37;22.19
67354;SHT30;54238;52.278;21.056;2023-05-10T10:35:17;23.31;21.78
67354;SHT30;54238;52.278;21.056;2023-05-10T10:37:46;23.40;21.94
67354;SHT30;54238;52.278;21.056;2023-05-10T10:40:27;23.58;21.62
67354;SHT30;54238;52.278;21.056;2023-05-10T10:43:24;23.79;20.23
67354;SHT30;54238;52.278;21.056;2023-05-10T10:48:48;23.87;20.04
67354;SHT30;54238;52.278;21.056;2023-05-10T10:52:12;24.05;18.92
67354;SHT30;54238;52.278;21.056;2023-05-10T10:57:35;24.20;19.31
67354;SHT30;54238;52.278;21.056;2023-05-10T11:00:36;24.41;19.74
67354;SHT30;54238;52.278;21.056;2023-05-10T11:03:12;24.46;20.46
67354;SHT30;54238;52.278;21.056;2023-05-10T11:05:45;24.61;20.35
67354;SHT30;54238;52.278;21.056;2023-05-10T11:08:28;24.86;20.42
67354;SHT30;54238;52.278;21.056;2023-05-10T11:11:04;25.16;19.76
67354;SHT30;54238;52.278;21.056;2023-05-10T11:13:42;25.28;19.85
67354;SHT30;54238;52.278;21.056;2023-05-10T11:16:19;25.33;18.73
67354;SHT30;54238;52.278;21.056;2023-05-10T11:19:03;25.44;18.85
67354;SHT30;54238;52.278;21.056;2023-05-10T11:21:47;25.52;18.81
67354;SHT30;54238;52.278;21.056;2023-05-10T11:24:17;25.57;18.59
67354;SHT30;54238;52.278;21.056;2023-05-10T11:26:49;25.49;18.31
67354;SHT30;54238;52.278;21.056;2023-05-10T11:29:20;25.51;18.77
67354;SHT30;54238;52.278;21.056;2023-05-10T11:31:52;25.65;19.06
67354;SHT30;54238;52.278;21.056;2023-05-10T11:34:29;25.72;18.96
67354;SHT30;54238;52.278;21.056;2023-05-10T11:37:04;25.78;19.00
67354;SHT30;54238;52.278;21.056;2023-05-10T11:39:31;25.78;19.37
67354;SHT30;54238;52.278;21.056;2023-05-10T11:42:01;25.92;19.18
67354;SHT30;54238;52.278;21.056;2023-05-10T11:44:32;26.24;18.96
67354;SHT30;54238;52.278;21.056;2023-05-10T11:47:00;26.53;18.81
67354;SHT30;54238;52.278;21.056;2023-05-10T11:49:34;26.60;17.71
67354;SHT30;54238;52.278;21.056;2023-05-10T11:52:06;26.64;17.36
67354;SHT30;54238;52.278;21.056;2023-05-10T11:54:37;26.78;17.40
67354;SHT30;54238;52.278;21.056;2023-05-10T11:57:11;26.73;17.65
67354;SHT30;54238;52.278;21.056;2023-05-10T11:59:41;26.66;17.75
67354;SHT30;54238;52.278;21.056;2023-05-10T12:02:08;26.72;18.03
67354;SHT30;54238;52.278;21.056;2023-05-10T12:04:41;26.96;18.60
67354;SHT30;54238;52.278;21.056;2023-05-10T12:07:11;27.23;19.07
67354;SHT30;54238;52.278;21.056;2023-05-10T12:09:43;27.58;17.97
67354;SHT30;54238;52.278;21.056;2023-05-10T12:12:17;27.76;16.71
67354;SHT30;54238;52.278;21.056;2023-05-10T12:14:50;27.84;16.85
67354;SHT30;54238;52.278;21.056;2023-05-10T12:17:19;27.86;17.09
67354;SHT30;54238;52.278;21.056;2023-05-10T12:19:46;27.99;17.34
67354;SHT30;54238;52.278;21.056;2023-05-10T12:22:17;27.97;17.57
67354;SHT30;54238;52.278;21.056;2023-05-10T12:24:47;27.85;17.40
67354;SHT30;54238;52.278;21.056;2023-05-10T12:27:18;27.77;17.26
67354;SHT30;54238;52.278;21.056;2023-05-10T12:29:48;27.87;17.09
67354;SHT30;54238;52.278;21.056;2023-05-10T12:32:17;28.06;17.09
67354;SHT30;54238;52.278;21.056;2023-05-10T12:34:46;28.27;16.87
67354;SHT30;54238;52.278;21.056;2023-05-10T12:37:16;28.51;17.67
67354;SHT30;54238;52.278;21.056;2023-05-10T12:39:45;28.89;17.36
67354;SHT30;54238;52.278;21.056;2023-05-10T12:42:12;29.18;16.39
67354;SHT30;54238;52.278;21.056;2023-05-10T12:44:44;29.21;15.79
67354;SHT30;54238;52.278;21.056;2023-05-10T12:47:14;29.15;15.87
67354;SHT30;54238;52.278;21.056;2023-05-10T12:49:48;29.20;16.07
67354;SHT30;54238;52.278;21.056;2023-05-10T12:52:17;29.16;15.87
67354;SHT30;54238;52.278;21.056;2023-05-10T12:54:46;29.05;15.90
67354;SHT30;54238;52.278;21.056;2023-05-10T12:57:16;29.11;16.17
67354;SHT30;54238;52.278;21.056;2023-05-10T12:59:46;29.24;16.53
67354;SHT30;54238;52.278;21.056;2023-05-10T13:02:20;29.43;16.43
67354;SHT30;54238;52.278;21.056;2023-05-10T13:04:52;29.52;16.12
67354;SHT30;54238;52.278;21.056;2023-05-10T13:07:22;29.58;16.51
67354;SHT30;54238;52.278;21.056;2023-05-10T13:09:51;29.70;16.60
67354;SHT30;54238;52.278;21.056;2023-05-10T13:12:25;29.67;16.80
67354;SHT30;54238;52.278;21.056;2023-05-10T13:14:52;29.67;17.39
67354;SHT30;54238;52.278;21.056;2023-05-10T13:17:25;29.74;16.15
67354;SHT30;54238;52.278;21.056;2023-05-10T13:20:00;29.87;15.73
67354;SHT30;54238;52.278;21.056;2023-05-10T13:22:28;30.04;15.83
67354;SHT30;54238;52.278;21.056;2023-05-10T13:25:01;30.02;16.51
67354;SHT30;54238;52.278;21.056;2023-05-10T13:27:29;30.06;16.62
67354;SHT30;54238;52.278;21.056;2023-05-10T13:29:59;29.90;16.58
67354;SHT30;54238;52.278;21.056;2023-05-10T13:32:32;29.90;16.68
67354;SHT30;54238;52.278;21.056;2023-05-10T13:35:04;29.83;16.74
67354;SHT30;54238;52.278;21.056;2023-05-10T13:37:44;29.73;16.54
67354;SHT30;54238;52.278;21.056;2023-05-10T13:40:11;29.59;16.85
67354;SHT30;54238;52.278;21.056;2023-05-10T13:42:40;29.43;16.89
67354;SHT30;54238;52.278;21.056;2023-05-10T13:45:10;29.38;16.92
67354;SHT30;54238;52.278;21.056;2023-05-10T13:47:39;29.31;17.17
67354;SHT30;54238;52.278;21.056;2023-05-10T13:50:06;29.45;17.83
67354;SHT30;54238;52.278;21.056;2023-05-10T13:52:34;29.68;17.02
67354;SHT30;54238;52.278;21.056;2023-05-10T13:55:06;29.86;16.00
67354;SHT30;54238;52.278;21.056;2023-05-10T13:57:38;29.70;16.16
67354;SHT30;54238;52.278;21.056;2023-05-10T14:00:06;29.63;16.52
67354;SHT30;54238;52.278;21.056;2023-05-10T14:02:37;29.74;16.92
67354;SHT30;54238;52.278;21.056;2023-05-10T14:05:07;29.79;16.39
67354;SHT30;54238;52.278;21.056;2023-05-10T14:07:37;29.70;16.27
67354;SHT30;54238;52.278;21.056;2023-05-10T14:10:08;29.75;16.24
67354;SHT30;54238;52.278;21.056;2023-05-10T14:12:35;29.63;16.11
67354;SHT30;54238;52.278;21.056;2023-05-10T14:15:05;29.59;16.32
67354;SHT30;54238;52.278;21.056;2023-05-10T14:17:38;29.65;16.63
67354;SHT30;54238;52.278;21.056;2023-05-10T14:20:07;29.58;16.10
67354;SHT30;54238;52.278;21.056;2023-05-10T14:22:35;29.48;15.53
67354;SHT30;54238;52.278;21.056;2023-05-10T14:25:05;29.31;15.83
67354;SHT30;54238;52.278;21.056;2023-05-10T14:27:35;29.27;16.64
67354;SHT30;54238;52.278;21.056;2023-05-10T14:30:05;29.31;16.53
67354;SHT30;54238;52.278;21.056;2023-05-10T14:32:36;29.27;16.21
67354;SHT30;54238;52.278;21.056;2023-05-10T14:35:07;29.38;15.83
67354;SHT30;54238;52.278;21.056;2023-05-10T14:37:38;29.37;16.15
67354;SHT30;54238;52.278;21.056;2023-05-10T14:40:08;29.41;16.38
67354;SHT30;54238;52.278;21.056;2023-05-10T14:42:36;29.34;16.38
67354;SHT30;54238;52.278;21.056;2023-05-10T14:45:03;29.23;16.80
67354;SHT30;54238;52.278;21.056;2023-05-10T14:47:34;29.25;16.59
67354;SHT30;54238;52.278;21.056;2023-05-10T14:50:03;29.23;16.32
67354;SHT30;54238;52.278;21.056;2023-05-10T14:52:34;29.14;16.22
67354;SHT30;54238;52.278;21.056;2023-05-10T14:55:04;29.15;16.79
67354;SHT30;54238;52.278;21.056;2023-05-10T14:57:34;29.06;16.43
67354;SHT30;54238;52.278;21.056;2023-05-10T15:00:05;28.65;16.25
67354;SHT30;54238;52.278;21.056;2023-05-10T15:02:34;28.34;16.73
67354;SHT30;54238;52.278;21.056;2023-05-10T15:05:04;28.08;17.10
67354;SHT30;54238;52.278;21.056;2023-05-10T15:07:35;27.96;17.17
67354;SHT30;54238;52.278;21.056;2023-05-10T15:10:05;27.81;17.66
67354;SHT30;54238;52.278;21.056;2023-05-10T15:12:39;27.42;17.51
67354;SHT30;54238;52.278;21.056;2023-05-10T15:15:06;26.98;17.31
67354;SHT30;54238;52.278;21.056;2023-05-10T15:17:37;26.82;17.67
67354;SHT30;54238;52.278;21.056;2023-05-10T15:20:12;26.88;18.10
67354;SHT30;54238;52.278;21.056;2023-05-10T15:22:40;26.86;17.62
67354;SHT30;54238;52.278;21.056;2023-05-10T15:25:14;26.81;17.21
67354;SHT30;54238;52.278;21.056;2023-05-10T15:27:44;26.77;17.52
67354;SHT30;54238;52.278;21.056;2023-05-10T15:30:11;26.58;17.11
67354;SHT30;54238;52.278;21.056;2023-05-10T15:32:44;26.51;17.95
67354;SHT30;54238;52.278;21.056;2023-05-10T15:35:13;26.50;18.09
67354;SHT30;54238;52.278;21.056;2023-05-10T15:37:41;26.44;18.14
67354;SHT30;54238;52.278;21.056;2023-05-10T15:40:08;26.46;18.66
67354;SHT30;54238;52.278;21.056;2023-05-10T15:42:41;26.44;17.91
67354;SHT30;54238;52.278;21.056;2023-05-10T15:45:11;26.27;17.76
67354;SHT30;54238;52.278;21.056;2023-05-10T15:47:41;26.13;18.09
67354;SHT30;54238;52.278;21.056;2023-05-10T15:50:08;25.97;18.21
67354;SHT30;54238;52.278;21.056;2023-05-10T15:52:43;25.73;17.84
67354;SHT30;54238;52.278;21.056;2023-05-10T15:55:10;25.51;18.05
67354;SHT30;54238;52.278;21.056;2023-05-10T15:57:39;25.28;18.10
67354;SHT30;54238;52.278;21.056;2023-05-10T16:00:08;25.14;18.43
67354;SHT30;54238;52.278;21.056;2023-05-10T16:02:40;25.00;19.01
67354;SHT30;54238;52.278;21.056;2023-05-10T16:05:13;24.93;19.02
67354;SHT30;54238;52.278;21.056;2023-05-10T16:07:42;24.93;18.94
67354;SHT30;54238;52.278;21.056;2023-05-10T16:10:10;24.90;18.81
67354;SHT30;54238;52.278;21.056;2023-05-10T16:12:40;24.86;19.30
67354;SHT30;54238;52.278;21.056;2023-05-10T16:15:10;24.80;19.44
67354;SHT30;54238;52.278;21.056;2023-05-10T16:17:41;24.77;19.41
67354;SHT30;54238;52.278;21.056;2023-05-10T16:20:13;24.75;19.59
67354;SHT30;54238;52.278;21.056;2023-05-10T16:22:42;24.63;19.68
67354;SHT30;54238;52.278;21.056;2023-05-10T16:25:11;24.54;19.37
67354;SHT30;54238;52.278;21.056;2023-05-10T16:27:39;24.36;18.97